sensor_id;sensor_type;location;lat;lon;timestamp;P1;durP1;ratioP1;P2;durP2;ratioP2
3149;SDS011;32503;47.748;8.960;2023-03-01T00:01:00;21.10;;;12.27;;
3149;SDS011;32503;47.748;8.960;2023-03-01T00:03:30;19.97;;;12.90;;
3149;SDS011;32503;47.748;8.960;2023-03-01T00:05:57;18.87;;;12.33;;
3149;SDS011;32503;47.748;8.960;2023-03-01T00:08:25;21.40;;;12.23;;
3149;SDS011;32503;47.748;8.960;2023-03-01T00:10:59;17.03;;;10.77;;
3149;SDS011;32503;47.748;8.960;2023-03-01T00:13:28;19.17;;;11.10;;
3149;SDS011;32503;47.748;8.960;2023-03-01T00:15:55;19.97;;;11.90;;
3149;SDS011;32503;47.748;8.960;2023-03-01T00:18:22;18.70;;;11.63;;
3149;SDS011;32503;47.748;8.960;2023-03-01T00:20:51;18.07;;;10.87;;
3149;SDS011;32503;47.748;8.960;2023-03-01T00:23:19;16.77;;;11.33;;
3149;SDS011;32503;47.748;8.960;2023-03-01T00:25:46;21.80;;;14.43;;
3149;SDS011;32503;47.748;8.960;2023-03-01T00:28:14;14.07;;;10.27;;
3149;SDS011;32503;47.748;8.960;2023-03-01T00:30:41;21.57;;;12.20;;
3149;SDS011;32503;47.748;8.960;2023-03-01T00:33:08;25.23;;;12.60;;
3149;SDS011;32503;47.748;8.960;2023-03-01T00:35:35;16.47;;;10.57;;
3149;SDS011;32503;47.748;8.960;2023-03-01T00:38:04;21.53;;;11.57;;
3149;SDS011;32503;47.748;8.960;2023-03-01T00:40:32;17.30;;;10.63;;
3149;SDS011;32503;47.748;8.960;2023-03-01T00:43:01;17.57;;;9.67;;
3149;SDS011;32503;47.748;8.960;2023-03-01T00:45:29;16.83;;;10.60;;
3149;SDS011;32503;47.748;8.960;2023-03-01T00:47:57;17.17;;;10.70;;
3149;SDS011;32503;47.748;8.960;2023-03-01T00:50:24;13.20;;;9.17;;
3149;SDS011;32503;47.748;8.960;2023-03-01T00:52:52;26.57;;;12.40;;
3149;SDS011;32503;47.748;8.960;2023-03-01T00:55:22;19.30;;;11.23;;
3149;SDS011;32503;47.748;8.960;2023-03-01T00:57:50;20.33;;;10.87;;
3149;SDS011;32503;47.748;8.960;2023-03-01T01:00:18;15.80;;;10.00;;
3149;SDS011;32503;47.748;8.960;2023-03-01T01:02:46;14.67;;;9.83;;
3149;SDS011;32503;47.748;8.960;2023-03-01T01:05:14;25.33;;;12.07;;
3149;SDS011;32503;47.748;8.960;2023-03-01T01:07:46;17.87;;;10.30;;
3149;SDS011;32503;47.748;8.960;2023-03-01T01:10:13;21.77;;;11.17;;
3149;SDS011;32503;47.748;8.960;2023-03-01T01:12:43;26.77;;;11.63;;
3149;SDS011;32503;47.748;8.960;2023-03-01T01:15:11;22.53;;;11.70;;
3149;SDS011;32503;47.748;8.960;2023-03-01T01:17:41;24.90;;;11.50;;
3149;SDS011;32503;47.748;8.960;2023-03-01T01:20:09;18.83;;;11.47;;
3149;SDS011;32503;47.748;8.960;2023-03-01T01:22:38;14.50;;;11.20;;
3149;SDS011;32503;47.748;8.960;2023-03-01T01:25:05;18.80;;;11.67;;
3149;SDS011;32503;47.748;8.960;2023-03-01T01:27:33;22.50;;;13.37;;
3149;SDS011;32503;47.748;8.960;2023-03-01T01:30:02;18.93;;;11.33;;
3149;SDS011;32503;47.748;8.960;2023-03-01T01:32:30;23.47;;;12.20;;
3149;SDS011;32503;47.748;8.960;2023-03-01T01:34:57;39.23;;;18.67;;
3149;SDS011;32503;47.748;8.960;2023-03-01T01:37:24;30.63;;;13.50;;
3149;SDS011;32503;47.748;8.960;2023-03-01T01:39:56;21.17;;;11.40;;
3149;SDS011;32503;47.748;8.960;2023-03-01T01:42:24;17.90;;;11.40;;
3149;SDS011;32503;47.748;8.960;2023-03-01T01:48:01;26.90;;;12.50;;
3149;SDS011;32503;47.748;8.960;2023-03-01T01:50:31;19.83;;;11.60;;
3149;SDS011;32503;47.748;8.960;2023-03-01T01:53:05;18.67;;;11.67;;
3149;SDS011;32503;47.748;8.960;2023-03-01T01:55:38;21.30;;;12.53;;
3149;SDS011;32503;47.748;8.960;2023-03-01T01:58:11;21.27;;;11.83;;
3149;SDS011;32503;47.748;8.960;2023-03-01T02:00:45;32.97;;;14.60;;
3149;SDS011;32503;47.748;8.960;2023-03-01T02:03:14;21.67;;;11.30;;
3149;SDS011;32503;47.748;8.960;2023-03-01T02:05:47;22.63;;;12.30;;
3149;SDS011;32503;47.748;8.960;2023-03-01T02:08:22;18.03;;;11.07;;
3149;SDS011;32503;47.748;8.960;2023-03-01T02:10:52;17.80;;;11.40;;
3149;SDS011;32503;47.748;8.960;2023-03-01T02:13:20;21.77;;;11.90;;
3149;SDS011;32503;47.748;8.960;2023-03-01T02:15:49;20.27;;;12.13;;
3149;SDS011;32503;47.748;8.960;2023-03-01T02:18:16;26.03;;;12.40;;
3149;SDS011;32503;47.748;8.960;2023-03-01T02:20:50;21.27;;;11.90;;
3149;SDS011;32503;47.748;8.960;2023-03-01T02:23:32;19.03;;;11.50;;
3149;SDS011;32503;47.748;8.960;2023-03-01T02:26:02;19.70;;;11.60;;
3149;SDS011;32503;47.748;8.960;2023-03-01T02:28:37;21.10;;;13.13;;
3149;SDS011;32503;47.748;8.960;2023-03-01T02:31:07;20.93;;;11.20;;
3149;SDS011;32503;47.748;8.960;2023-03-01T02:33:54;26.27;;;12.60;;
3149;SDS011;32503;47.748;8.960;2023-03-01T02:36:24;24.03;;;12.50;;
3149;SDS011;32503;47.748;8.960;2023-03-01T02:38:57;24.23;;;11.87;;
3149;SDS011;32503;47.748;8.960;2023-03-01T02:41:28;22.87;;;12.67;;
3149;SDS011;32503;47.748;8.960;2023-03-01T02:44:02;20.87;;;11.33;;
3149;SDS011;32503;47.748;8.960;2023-03-01T02:46:30;25.87;;;12.10;;
3149;SDS011;32503;47.748;8.960;2023-03-01T02:48:58;22.07;;;12.37;;
3149;SDS011;32503;47.748;8.960;2023-03-01T02:51:27;29.00;;;12.90;;
3149;SDS011;32503;47.748;8.960;2023-03-01T02:54:15;21.50;;;11.27;;
3149;SDS011;32503;47.748;8.960;2023-03-01T02:56:49;23.90;;;11.03;;
3149;SDS011;32503;47.748;8.960;2023-03-01T02:59:19;25.67;;;12.53;;
3149;SDS011;32503;47.748;8.960;2023-03-01T03:01:49;23.87;;;12.50;;
3149;SDS011;32503;47.748;8.960;2023-03-01T03:04:16;22.83;;;11.47;;
3149;SDS011;32503;47.748;8.960;2023-03-01T03:06:46;17.30;;;11.37;;
3149;SDS011;32503;47.748;8.960;2023-03-01T03:09:16;22.80;;;11.63;;
3149;SDS011;32503;47.748;8.960;2023-03-01T03:11:44;23.23;;;12.77;;
3149;SDS011;32503;47.748;8.960;2023-03-01T03:14:12;15.60;;;11.37;;
3149;SDS011;32503;47.748;8.960;2023-03-01T03:16:43;25.40;;;13.27;;
3149;SDS011;32503;47.748;8.960;2023-03-01T03:19:13;24.57;;;11.70;;
3149;SDS011;32503;47.748;8.960;2023-03-01T03:21:41;22.07;;;12.67;;
3149;SDS011;32503;47.748;8.960;2023-03-01T03:24:08;23.50;;;12.47;;
3149;SDS011;32503;47.748;8.960;2023-03-01T03:26:35;18.10;;;11.00;;
3149;SDS011;32503;47.748;8.960;2023-03-01T03:29:03;20.63;;;11.70;;
3149;SDS011;32503;47.748;8.960;2023-03-01T03:31:30;21.63;;;11.57;;
3149;SDS011;32503;47.748;8.960;2023-03-01T03:33:58;21.10;;;11.37;;
3149;SDS011;32503;47.748;8.960;2023-03-01T03:36:25;25.07;;;12.20;;
3149;SDS011;32503;47.748;8.960;2023-03-01T03:38:52;18.87;;;11.33;;
3149;SDS011;32503;47.748;8.960;2023-03-01T03:41:19;22.30;;;12.03;;
3149;SDS011;32503;47.748;8.960;2023-03-01T03:43:47;21.73;;;11.10;;
3149;SDS011;32503;47.748;8.960;2023-03-01T03:46:14;29.67;;;12.90;;
3149;SDS011;32503;47.748;8.960;2023-03-01T03:48:42;22.67;;;12.10;;
3149;SDS011;32503;47.748;8.960;2023-03-01T03:51:12;21.70;;;12.47;;
3149;SDS011;32503;47.748;8.960;2023-03-01T03:53:42;24.17;;;12.33;;
3149;SDS011;32503;47.748;8.960;2023-03-01T03:56:10;24.50;;;12.43;;
3149;SDS011;32503;47.748;8.960;2023-03-01T03:58:37;24.20;;;13.40;;
3149;SDS011;32503;47.748;8.960;2023-03-01T04:01:04;23.33;;;13.07;;
3149;SDS011;32503;47.748;8.960;2023-03-01T04:03:32;25.37;;;13.40;;
3149;SDS011;32503;47.748;8.960;2023-03-01T04:06:01;21.87;;;11.97;;
3149;SDS011;32503;47.748;8.960;2023-03-01T04:08:31;20.67;;;13.53;;
3149;SDS011;32503;47.748;8.960;2023-03-01T04:11:00;24.50;;;13.00;;
3149;SDS011;32503;47.748;8.960;2023-03-01T04:13:51;27.87;;;13.30;;
3149;SDS011;32503;47.748;8.960;2023-03-01T04:16:20;24.50;;;13.03;;
3149;SDS011;32503;47.748;8.960;2023-03-01T04:18:48;23.73;;;13.17;;
3149;SDS011;32503;47.748;8.960;2023-03-01T04:21:15;30.07;;;14.77;;
3149;SDS011;32503;47.748;8.960;2023-03-01T04:23:44;24.33;;;13.53;;
3149;SDS011;32503;47.748;8.960;2023-03-01T04:26:11;26.20;;;12.40;;
3149;SDS011;32503;47.748;8.960;2023-03-01T04:28:39;19.50;;;11.77;;
3149;SDS011;32503;47.748;8.960;2023-03-01T04:31:11;21.97;;;11.57;;
3149;SDS011;32503;47.748;8.960;2023-03-01T04:33:41;25.17;;;13.70;;
3149;SDS011;32503;47.748;8.960;2023-03-01T04:36:10;28.47;;;14.37;;
3149;SDS011;32503;47.748;8.960;2023-03-01T04:38:39;20.90;;;12.60;;
3149;SDS011;32503;47.748;8.960;2023-03-01T04:41:09;23.27;;;12.07;;
3149;SDS011;32503;47.748;8.960;2023-03-01T04:43:37;22.90;;;11.50;;
3149;SDS011;32503;47.748;8.960;2023-03-01T04:46:05;26.03;;;13.30;;
3149;SDS011;32503;47.748;8.960;2023-03-01T04:48:34;27.97;;;12.97;;
3149;SDS011;32503;47.748;8.960;2023-03-01T04:51:03;19.50;;;11.17;;
3149;SDS011;32503;47.748;8.960;2023-03-01T04:53:32;26.87;;;12.47;;
3149;SDS011;32503;47.748;8.960;2023-03-01T04:56:01;23.67;;;11.47;;
3149;SDS011;32503;47.748;8.960;2023-03-01T04:58:30;25.40;;;12.63;;
3149;SDS011;32503;47.748;8.960;2023-03-01T05:00:57;20.10;;;12.00;;
3149;SDS011;32503;47.748;8.960;2023-03-01T05:03:25;30.20;;;14.33;;
3149;SDS011;32503;47.748;8.960;2023-03-01T05:05:53;23.93;;;12.50;;
3149;SDS011;32503;47.748;8.960;2023-03-01T05:08:20;26.50;;;14.30;;
3149;SDS011;32503;47.748;8.960;2023-03-01T05:10:48;26.03;;;15.27;;
3149;SDS011;32503;47.748;8.960;2023-03-01T05:13:17;27.87;;;14.40;;
3149;SDS011;32503;47.748;8.960;2023-03-01T05:15:48;28.50;;;13.03;;
3149;SDS011;32503;47.748;8.960;2023-03-01T05:18:20;23.37;;;11.80;;
3149;SDS011;32503;47.748;8.960;2023-03-01T05:20:51;21.30;;;10.90;;
3149;SDS011;32503;47.748;8.960;2023-03-01T05:23:21;30.60;;;15.07;;
3149;SDS011;32503;47.748;8.960;2023-03-01T05:25:48;35.10;;;13.97;;
3149;SDS011;32503;47.748;8.960;2023-03-01T05:28:17;29.73;;;13.40;;
3149;SDS011;32503;47.748;8.960;2023-03-01T05:30:46;25.07;;;13.20;;
3149;SDS011;32503;47.748;8.960;2023-03-01T05:33:16;24.37;;;14.83;;
3149;SDS011;32503;47.748;8.960;2023-03-01T05:35:44;25.97;;;13.13;;
3149;SDS011;32503;47.748;8.960;2023-03-01T05:38:13;24.20;;;12.73;;
3149;SDS011;32503;47.748;8.960;2023-03-01T05:40:41;27.33;;;14.93;;
3149;SDS011;32503;47.748;8.960;2023-03-01T05:43:10;29.47;;;13.37;;
3149;SDS011;32503;47.748;8.960;2023-03-01T05:45:39;26.23;;;14.77;;
3149;SDS011;32503;47.748;8.960;2023-03-01T05:48:09;22.47;;;12.10;;
3149;SDS011;32503;47.748;8.960;2023-03-01T05:50:38;27.00;;;13.67;;
3149;SDS011;32503;47.748;8.960;2023-03-01T05:53:09;23.50;;;13.40;;
3149;SDS011;32503;47.748;8.960;2023-03-01T05:55:38;24.47;;;12.67;;
3149;SDS011;32503;47.748;8.960;2023-03-01T05:58:09;27.20;;;12.67;;
3149;SDS011;32503;47.748;8.960;2023-03-01T06:00:39;22.00;;;12.90;;
3149;SDS011;32503;47.748;8.960;2023-03-01T06:03:06;30.37;;;13.50;;
3149;SDS011;32503;47.748;8.960;2023-03-01T06:05:37;25.53;;;14.77;;
3149;SDS011;32503;47.748;8.960;2023-03-01T06:08:05;22.63;;;12.97;;
3149;SDS011;32503;47.748;8.960;2023-03-01T06:10:33;32.57;;;15.57;;
3149;SDS011;32503;47.748;8.960;2023-03-01T06:13:00;25.17;;;13.67;;
3149;SDS011;32503;47.748;8.960;2023-03-01T06:15:27;31.50;;;15.03;;
3149;SDS011;32503;47.748;8.960;2023-03-01T06:17:54;42.83;;;19.67;;
3149;SDS011;32503;47.748;8.960;2023-03-01T06:20:24;40.30;;;20.17;;
3149;SDS011;32503;47.748;8.960;2023-03-01T06:22:53;27.03;;;15.27;;
3149;SDS011;32503;47.748;8.960;2023-03-01T06:25:22;31.87;;;17.40;;
3149;SDS011;32503;47.748;8.960;2023-03-01T06:27:51;26.50;;;17.03;;
3149;SDS011;32503;47.748;8.960;2023-03-01T06:30:19;41.23;;;20.47;;
3149;SDS011;32503;47.748;8.960;2023-03-01T06:32:48;45.97;;;22.33;;
3149;SDS011;32503;47.748;8.960;2023-03-01T06:35:16;51.53;;;23.13;;
3149;SDS011;32503;47.748;8.960;2023-03-01T06:37:46;50.57;;;28.60;;
3149;SDS011;32503;47.748;8.960;2023-03-01T06:40:14;46.13;;;26.97;;
3149;SDS011;32503;47.748;8.960;2023-03-01T06:42:43;30.43;;;17.67;;
3149;SDS011;32503;47.748;8.960;2023-03-01T06:45:15;34.63;;;18.80;;
3149;SDS011;32503;47.748;8.960;2023-03-01T06:47:43;29.40;;;17.40;;
3149;SDS011;32503;47.748;8.960;2023-03-01T06:50:10;34.50;;;18.60;;
3149;SDS011;32503;47.748;8.960;2023-03-01T06:52:37;28.73;;;15.57;;
3149;SDS011;32503;47.748;8.960;2023-03-01T06:55:07;34.67;;;16.70;;
3149;SDS011;32503;47.748;8.960;2023-03-01T06:57:34;20.63;;;13.37;;
3149;SDS011;32503;47.748;8.960;2023-03-01T07:00:02;31.60;;;14.50;;
3149;SDS011;32503;47.748;8.960;2023-03-01T07:02:29;28.37;;;14.50;;
3149;SDS011;32503;47.748;8.960;2023-03-01T07:04:56;24.67;;;14.10;;
3149;SDS011;32503;47.748;8.960;2023-03-01T07:07:24;25.40;;;14.20;;
3149;SDS011;32503;47.748;8.960;2023-03-01T07:09:51;24.40;;;16.57;;
3149;SDS011;32503;47.748;8.960;2023-03-01T07:12:19;26.00;;;14.70;;
3149;SDS011;32503;47.748;8.960;2023-03-01T07:14:46;25.67;;;14.80;;
3149;SDS011;32503;47.748;8.960;2023-03-01T07:17:13;30.80;;;16.30;;
3149;SDS011;32503;47.748;8.960;2023-03-01T07:19:40;24.47;;;13.50;;
3149;SDS011;32503;47.748;8.960;2023-03-01T07:22:07;34.43;;;14.97;;
3149;SDS011;32503;47.748;8.960;2023-03-01T07:24:34;33.63;;;15.17;;
3149;SDS011;32503;47.748;8.960;2023-03-01T07:27:01;33.63;;;16.40;;
3149;SDS011;32503;47.748;8.960;2023-03-01T07:29:30;28.57;;;14.87;;
3149;SDS011;32503;47.748;8.960;2023-03-01T07:31:57;28.67;;;14.70;;
3149;SDS011;32503;47.748;8.960;2023-03-01T07:34:24;31.83;;;13.07;;
3149;SDS011;32503;47.748;8.960;2023-03-01T07:36:51;30.57;;;15.13;;
3149;SDS011;32503;47.748;8.960;2023-03-01T07:39:18;25.53;;;14.50;;
3149;SDS011;32503;47.748;8.960;2023-03-01T07:41:47;28.00;;;14.33;;
3149;SDS011;32503;47.748;8.960;2023-03-01T07:44:14;28.83;;;13.73;;
3149;SDS011;32503;47.748;8.960;2023-03-01T07:46:43;24.10;;;13.33;;
3149;SDS011;32503;47.748;8.960;2023-03-01T07:49:10;25.37;;;15.77;;
3149;SDS011;32503;47.748;8.960;2023-03-01T07:51:37;21.40;;;13.33;;
3149;SDS011;32503;47.748;8.960;2023-03-01T07:54:05;25.20;;;13.70;;
3149;SDS011;32503;47.748;8.960;2023-03-01T07:56:32;25.90;;;13.23;;
3149;SDS011;32503;47.748;8.960;2023-03-01T07:58:59;22.77;;;14.23;;
3149;SDS011;32503;47.748;8.960;2023-03-01T08:01:26;32.17;;;15.63;;
3149;SDS011;32503;47.748;8.960;2023-03-01T08:03:54;42.60;;;20.77;;
3149;SDS011;32503;47.748;8.960;2023-03-01T08:06:21;27.47;;;14.53;;
3149;SDS011;32503;47.748;8.960;2023-03-01T08:08:48;18.77;;;11.83;;
3149;SDS011;32503;47.748;8.960;2023-03-01T08:11:15;30.43;;;15.70;;
3149;SDS011;32503;47.748;8.960;2023-03-01T08:13:43;31.13;;;16.03;;
3149;SDS011;32503;47.748;8.960;2023-03-01T08:16:11;36.90;;;17.20;;
3149;SDS011;32503;47.748;8.960;2023-03-01T08:18:39;27.90;;;16.00;;
3149;SDS011;32503;47.748;8.960;2023-03-01T08:21:09;27.97;;;14.10;;
3149;SDS011;32503;47.748;8.960;2023-03-01T08:23:39;29.77;;;13.97;;
3149;SDS011;32503;47.748;8.960;2023-03-01T08:26:07;33.23;;;16.97;;
3149;SDS011;32503;47.748;8.960;2023-03-01T08:28:37;38.47;;;18.33;;
3149;SDS011;32503;47.748;8.960;2023-03-01T08:31:12;37.50;;;18.80;;
3149;SDS011;32503;47.748;8.960;2023-03-01T08:33:42;30.37;;;16.47;;
3149;SDS011;32503;47.748;8.960;2023-03-01T08:36:11;59.27;;;28.43;;
3149;SDS011;32503;47.748;8.960;2023-03-01T08:38:38;50.60;;;22.47;;
3149;SDS011;32503;47.748;8.960;2023-03-01T08:41:05;33.10;;;16.57;;
3149;SDS011;32503;47.748;8.960;2023-03-01T08:43:32;28.90;;;16.10;;
3149;SDS011;32503;47.748;8.960;2023-03-01T08:45:59;37.87;;;17.60;;
3149;SDS011;32503;47.748;8.960;2023-03-01T08:48:27;36.77;;;18.33;;
3149;SDS011;32503;47.748;8.960;2023-03-01T08:50:54;24.93;;;13.20;;
3149;SDS011;32503;47.748;8.960;2023-03-01T08:53:23;25.27;;;15.97;;
3149;SDS011;32503;47.748;8.960;2023-03-01T08:55:50;22.70;;;14.37;;
3149;SDS011;32503;47.748;8.960;2023-03-01T08:58:17;21.17;;;13.17;;
3149;SDS011;32503;47.748;8.960;2023-03-01T09:00:44;20.30;;;12.17;;
3149;SDS011;32503;47.748;8.960;2023-03-01T09:03:11;25.10;;;13.27;;
3149;SDS011;32503;47.748;8.960;2023-03-01T09:05:38;23.73;;;13.43;;
3149;SDS011;32503;47.748;8.960;2023-03-01T09:08:05;20.43;;;14.70;;
3149;SDS011;32503;47.748;8.960;2023-03-01T09:10:38;25.40;;;17.00;;
3149;SDS011;32503;47.748;8.960;2023-03-01T09:13:05;26.03;;;13.70;;
3149;SDS011;32503;47.748;8.960;2023-03-01T09:15:32;26.53;;;17.70;;
3149;SDS011;32503;47.748;8.960;2023-03-01T09:17:59;25.83;;;13.10;;
3149;SDS011;32503;47.748;8.960;2023-03-01T09:20:26;20.83;;;11.97;;
3149;SDS011;32503;47.748;8.960;2023-03-01T09:22:53;28.23;;;13.97;;
3149;SDS011;32503;47.748;8.960;2023-03-01T09:25:20;26.43;;;14.07;;
3149;SDS011;32503;47.748;8.960;2023-03-01T09:27:49;22.83;;;12.80;;
3149;SDS011;32503;47.748;8.960;2023-03-01T09:30:17;25.83;;;13.83;;
3149;SDS011;32503;47.748;8.960;2023-03-01T09:32:45;22.33;;;13.43;;
3149;SDS011;32503;47.748;8.960;2023-03-01T09:35:13;28.10;;;13.50;;
3149;SDS011;32503;47.748;8.960;2023-03-01T09:37:40;30.13;;;17.50;;
3149;SDS011;32503;47.748;8.960;2023-03-01T09:40:09;21.67;;;12.77;;
3149;SDS011;32503;47.748;8.960;2023-03-01T09:42:45;24.07;;;12.70;;
3149;SDS011;32503;47.748;8.960;2023-03-01T09:45:22;23.97;;;12.73;;
3149;SDS011;32503;47.748;8.960;2023-03-01T09:47:57;29.50;;;13.73;;
3149;SDS011;32503;47.748;8.960;2023-03-01T09:50:24;21.97;;;11.10;;
3149;SDS011;32503;47.748;8.960;2023-03-01T09:53:00;31.17;;;14.33;;
3149;SDS011;32503;47.748;8.960;2023-03-01T09:55:31;23.40;;;11.50;;
3149;SDS011;32503;47.748;8.960;2023-03-01T09:58:15;21.20;;;11.67;;
3149;SDS011;32503;47.748;8.960;2023-03-01T10:01:02;24.13;;;13.00;;
3149;SDS011;32503;47.748;8.960;2023-03-01T10:03:39;20.33;;;11.80;;
3149;SDS011;32503;47.748;8.960;2023-03-01T10:06:14;28.27;;;13.50;;
3149;SDS011;32503;47.748;8.960;2023-03-01T10:08:49;22.60;;;13.17;;
3149;SDS011;32503;47.748;8.960;2023-03-01T10:11:23;20.83;;;12.83;;
3149;SDS011;32503;47.748;8.960;2023-03-01T10:13:56;22.03;;;12.73;;
3149;SDS011;32503;47.748;8.960;2023-03-01T10:16:33;28.27;;;13.40;;
3149;SDS011;32503;47.748;8.960;2023-03-01T10:19:10;19.67;;;12.50;;
3149;SDS011;32503;47.748;8.960;2023-03-01T10:21:44;28.50;;;13.47;;
3149;SDS011;32503;47.748;8.960;2023-03-01T10:24:12;24.70;;;12.90;;
3149;SDS011;32503;47.748;8.960;2023-03-01T10:26:46;20.30;;;13.00;;
3149;SDS011;32503;47.748;8.960;2023-03-01T10:29:22;24.07;;;12.43;;
3149;SDS011;32503;47.748;8.960;2023-03-01T10:31:55;27.40;;;14.03;;
3149;SDS011;32503;47.748;8.960;2023-03-01T10:34:27;20.73;;;12.10;;
3149;SDS011;32503;47.748;8.960;2023-03-01T10:36:56;32.17;;;14.60;;
3149;SDS011;32503;47.748;8.960;2023-03-01T10:39:34;25.07;;;13.17;;
3149;SDS011;32503;47.748;8.960;2023-03-01T10:42:02;25.63;;;11.77;;
3149;SDS011;32503;47.748;8.960;2023-03-01T10:44:40;23.00;;;12.43;;
3149;SDS011;32503;47.748;8.960;2023-03-01T10:47:15;22.63;;;12.20;;
3149;SDS011;32503;47.748;8.960;2023-03-01T10:49:56;24.37;;;14.00;;
3149;SDS011;32503;47.748;8.960;2023-03-01T10:52:28;20.87;;;12.33;;
3149;SDS011;32503;47.748;8.960;2023-03-01T10:54:59;25.93;;;14.37;;
3149;SDS011;32503;47.748;8.960;2023-03-01T10:57:32;30.53;;;14.20;;
3149;SDS011;32503;47.748;8.960;2023-03-01T11:03:02;23.73;;;12.10;;
3149;SDS011;32503;47.748;8.960;2023-03-01T11:05:37;32.40;;;13.57;;
3149;SDS011;32503;47.748;8.960;2023-03-01T11:11:12;25.17;;;14.17;;
3149;SDS011;32503;47.748;8.960;2023-03-01T11:14:00;26.20;;;12.60;;
3149;SDS011;32503;47.748;8.960;2023-03-01T11:16:34;27.87;;;13.33;;
3149;SDS011;32503;47.748;8.960;2023-03-01T11:19:12;31.00;;;12.97;;
3149;SDS011;32503;47.748;8.960;2023-03-01T11:21:54;29.40;;;13.20;;
3149;SDS011;32503;47.748;8.960;2023-03-01T11:24:29;22.23;;;12.83;;
3149;SDS011;32503;47.748;8.960;2023-03-01T11:27:04;28.50;;;12.67;;
3149;SDS011;32503;47.748;8.960;2023-03-01T11:29:43;24.73;;;12.67;;
3149;SDS011;32503;47.748;8.960;2023-03-01T11:32:17;23.17;;;12.60;;
3149;SDS011;32503;47.748;8.960;2023-03-01T11:34:50;26.40;;;13.40;;
3149;SDS011;32503;47.748;8.960;2023-03-01T11:37:30;25.90;;;13.47;;
3149;SDS011;32503;47.748;8.960;2023-03-01T11:40:10;26.10;;;14.57;;
3149;SDS011;32503;47.748;8.960;2023-03-01T11:42:50;21.40;;;11.87;;
3149;SDS011;32503;47.748;8.960;2023-03-01T11:45:28;25.67;;;12.97;;
3149;SDS011;32503;47.748;8.960;2023-03-01T11:51:05;20.77;;;11.53;;
3149;SDS011;32503;47.748;8.960;2023-03-01T11:53:49;24.50;;;13.63;;
3149;SDS011;32503;47.748;8.960;2023-03-01T11:56:28;22.40;;;12.47;;
3149;SDS011;32503;47.748;8.960;2023-03-01T11:59:03;23.23;;;13.00;;
3149;SDS011;32503;47.748;8.960;2023-03-01T12:01:51;22.20;;;12.87;;
3149;SDS011;32503;47.748;8.960;2023-03-01T12:04:46;24.17;;;12.50;;
3149;SDS011;32503;47.748;8.960;2023-03-01T12:07:33;18.97;;;12.33;;
3149;SDS011;32503;47.748;8.960;2023-03-01T12:10:18;26.37;;;12.80;;
3149;SDS011;32503;47.748;8.960;2023-03-01T12:13:03;25.50;;;12.13;;
3149;SDS011;32503;47.748;8.960;2023-03-01T12:16:01;17.13;;;11.30;;
3149;SDS011;32503;47.748;8.960;2023-03-01T12:19:08;22.20;;;11.90;;
3149;SDS011;32503;47.748;8.960;2023-03-01T12:21:56;16.40;;;10.97;;
3149;SDS011;32503;47.748;8.960;2023-03-01T12:24:57;20.53;;;11.73;;
3149;SDS011;32503;47.748;8.960;2023-03-01T12:27:44;24.13;;;11.67;;
3149;SDS011;32503;47.748;8.960;2023-03-01T12:30:35;21.37;;;11.63;;
3149;SDS011;32503;47.748;8.960;2023-03-01T12:33:17;22.80;;;13.27;;
3149;SDS011;32503;47.748;8.960;2023-03-01T12:36:10;27.20;;;12.90;;
3149;SDS011;32503;47.748;8.960;2023-03-01T12:39:12;18.60;;;10.97;;
3149;SDS011;32503;47.748;8.960;2023-03-01T12:41:58;18.80;;;11.97;;
3149;SDS011;32503;47.748;8.960;2023-03-01T12:44:39;19.13;;;10.90;;
3149;SDS011;32503;47.748;8.960;2023-03-01T12:47:26;26.07;;;12.67;;
3149;SDS011;32503;47.748;8.960;2023-03-01T12:50:25;24.07;;;12.87;;
3149;SDS011;32503;47.748;8.960;2023-03-01T12:53:16;27.20;;;13.57;;
3149;SDS011;32503;47.748;8.960;2023-03-01T12:55:51;28.07;;;14.07;;
3149;SDS011;32503;47.748;8.960;2023-03-01T12:58:24;25.00;;;13.13;;
3149;SDS011;32503;47.748;8.960;2023-03-01T13:01:00;19.10;;;12.40;;
3149;SDS011;32503;47.748;8.960;2023-03-01T13:03:43;27.53;;;13.97;;
3149;SDS011;32503;47.748;8.960;2023-03-01T13:06:29;24.97;;;13.23;;
3149;SDS011;32503;47.748;8.960;2023-03-01T13:09:07;23.20;;;13.97;;
3149;SDS011;32503;47.748;8.960;2023-03-01T13:11:47;33.90;;;15.47;;
3149;SDS011;32503;47.748;8.960;2023-03-01T13:20:12;28.00;;;13.43;;
3149;SDS011;32503;47.748;8.960;2023-03-01T13:22:42;31.33;;;18.00;;
3149;SDS011;32503;47.748;8.960;2023-03-01T13:25:14;24.13;;;14.87;;
3149;SDS011;32503;47.748;8.960;2023-03-01T13:27:45;28.63;;;15.47;;
3149;SDS011;32503;47.748;8.960;2023-03-01T13:36:10;27.57;;;13.10;;
3149;SDS011;32503;47.748;8.960;2023-03-01T13:38:55;20.30;;;13.57;;
3149;SDS011;32503;47.748;8.960;2023-03-01T13:44:20;25.20;;;13.90;;
3149;SDS011;32503;47.748;8.960;2023-03-01T13:46:52;24.10;;;12.80;;
3149;SDS011;32503;47.748;8.960;2023-03-01T13:49:25;21.10;;;12.70;;
3149;SDS011;32503;47.748;8.960;2023-03-01T13:51:56;19.30;;;12.30;;
3149;SDS011;32503;47.748;8.960;2023-03-01T13:54:25;25.53;;;13.67;;
3149;SDS011;32503;47.748;8.960;2023-03-01T13:56:56;21.50;;;13.20;;
3149;SDS011;32503;47.748;8.960;2023-03-01T13:59:26;29.97;;;14.27;;
3149;SDS011;32503;47.748;8.960;2023-03-01T14:01:55;23.50;;;13.77;;
3149;SDS011;32503;47.748;8.960;2023-03-01T14:04:26;20.93;;;10.60;;
3149;SDS011;32503;47.748;8.960;2023-03-01T14:07:08;25.10;;;12.77;;
3149;SDS011;32503;47.748;8.960;2023-03-01T14:09:37;24.77;;;12.30;;
3149;SDS011;32503;47.748;8.960;2023-03-01T14:12:15;27.13;;;14.53;;
3149;SDS011;32503;47.748;8.960;2023-03-01T14:14:57;23.17;;;12.20;;
3149;SDS011;32503;47.748;8.960;2023-03-01T14:17:39;27.40;;;14.70;;
3149;SDS011;32503;47.748;8.960;2023-03-01T14:20:18;24.60;;;13.43;;
3149;SDS011;32503;47.748;8.960;2023-03-01T14:22:47;23.93;;;13.40;;
3149;SDS011;32503;47.748;8.960;2023-03-01T14:25:26;27.50;;;16.67;;
3149;SDS011;32503;47.748;8.960;2023-03-01T14:27:57;25.73;;;12.93;;
3149;SDS011;32503;47.748;8.960;2023-03-01T14:30:31;24.53;;;12.83;;
3149;SDS011;32503;47.748;8.960;2023-03-01T14:33:04;28.70;;;14.50;;
3149;SDS011;32503;47.748;8.960;2023-03-01T14:35:51;25.23;;;14.17;;
3149;SDS011;32503;47.748;8.960;2023-03-01T14:38:28;22.50;;;12.73;;
3149;SDS011;32503;47.748;8.960;2023-03-01T14:41:00;24.73;;;12.67;;
3149;SDS011;32503;47.748;8.960;2023-03-01T14:43:33;25.27;;;13.37;;
3149;SDS011;32503;47.748;8.960;2023-03-01T14:46:05;25.57;;;14.40;;
3149;SDS011;32503;47.748;8.960;2023-03-01T14:48:32;27.30;;;14.00;;
3149;SDS011;32503;47.748;8.960;2023-03-01T14:50:59;23.67;;;13.40;;
3149;SDS011;32503;47.748;8.960;2023-03-01T14:53:26;20.07;;;13.17;;
3149;SDS011;32503;47.748;8.960;2023-03-01T14:55:56;23.20;;;13.03;;
3149;SDS011;32503;47.748;8.960;2023-03-01T14:58:28;19.37;;;12.27;;
3149;SDS011;32503;47.748;8.960;2023-03-01T15:00:59;23.00;;;12.07;;
3149;SDS011;32503;47.748;8.960;2023-03-01T15:03:31;23.97;;;13.40;;
3149;SDS011;32503;47.748;8.960;2023-03-01T15:06:02;19.90;;;11.77;;
3149;SDS011;32503;47.748;8.960;2023-03-01T15:08:32;25.40;;;13.23;;
3149;SDS011;32503;47.748;8.960;2023-03-01T15:11:01;28.40;;;13.53;;
3149;SDS011;32503;47.748;8.960;2023-03-01T15:13:31;23.60;;;15.07;;
3149;SDS011;32503;47.748;8.960;2023-03-01T15:16:04;27.23;;;14.10;;
3149;SDS011;32503;47.748;8.960;2023-03-01T15:18:36;22.57;;;12.83;;
3149;SDS011;32503;47.748;8.960;2023-03-01T15:21:10;21.43;;;14.00;;
3149;SDS011;32503;47.748;8.960;2023-03-01T15:23:47;19.60;;;12.50;;
3149;SDS011;32503;47.748;8.960;2023-03-01T15:26:25;17.50;;;10.80;;
3149;SDS011;32503;47.748;8.960;2023-03-01T15:28:57;30.00;;;13.30;;